createdAt,value
2019-06-26T00:01:23.823Z,23.83
2019-06-26T00:03:57.651Z,21.82
2019-06-26T00:06:31.424Z,21.95
2019-06-26T00:09:06.641Z,22.55
2019-06-26T00:11:40.522Z,21.42
2019-06-26T00:14:21.461Z,22.05
2019-06-26T00:16:55.291Z,23.65
2019-06-26T00:19:29.119Z,21.42
2019-06-26T00:22:03.001Z,23.32
2019-06-26T00:24:37.858Z,22.27
2019-06-26T00:27:11.699Z,22.55
2019-06-26T00:29:45.479Z,23.20
2019-06-26T00:32:19.183Z,22.58
2019-06-26T00:34:52.983Z,23.22
2019-06-26T00:37:26.595Z,22.60
2019-06-26T00:40:00.387Z,22.95
2019-06-26T00:42:34.040Z,22.87
2019-06-26T00:45:07.939Z,23.83
2019-06-26T00:47:41.742Z,23.65
2019-06-26T00:50:17.266Z,23.90
2019-06-26T00:52:50.993Z,24.55
2019-06-26T00:55:24.721Z,24.43
2019-06-26T00:57:58.437Z,23.60
2019-06-26T01:00:40.682Z,23.70
2019-06-26T01:03:14.411Z,23.30
2019-06-26T01:05:48.191Z,24.60
2019-06-26T01:08:22.235Z,23.52
2019-06-26T01:10:55.965Z,23.85
2019-06-26T01:13:29.685Z,24.02
2019-06-26T01:16:03.410Z,22.52
2019-06-26T01:18:37.142Z,23.25
2019-06-26T01:21:11.312Z,24.25
2019-06-26T01:23:45.075Z,24.23
2019-06-26T01:26:18.840Z,23.98
2019-06-26T01:28:52.880Z,26.85
2019-06-26T01:31:26.721Z,24.95
2019-06-26T01:34:00.453Z,23.50
2019-06-26T01:36:33.119Z,24.95
2019-06-26T01:39:07.602Z,22.62
2019-06-26T01:41:42.114Z,24.72
2019-06-26T01:44:15.897Z,24.00
2019-06-26T01:46:49.663Z,23.98
2019-06-26T01:49:23.405Z,23.20
2019-06-26T01:51:57.061Z,25.08
2019-06-26T01:54:30.779Z,24.37
2019-06-26T01:57:04.497Z,24.50
2019-06-26T01:59:38.331Z,24.85
2019-06-26T02:02:12.363Z,23.92
2019-06-26T02:04:46.083Z,24.37
2019-06-26T02:07:19.881Z,24.07
2019-06-26T02:09:53.613Z,22.82
2019-06-26T02:12:27.330Z,23.38
2019-06-26T02:15:03.219Z,23.55
2019-06-26T02:17:36.967Z,25.95
2019-06-26T02:20:10.701Z,26.48
2019-06-26T02:22:44.452Z,23.80
2019-06-26T02:25:18.406Z,23.07
2019-06-26T02:27:52.182Z,25.55
2019-06-26T02:30:25.925Z,23.52
2019-06-26T02:32:59.720Z,25.08
2019-06-26T02:35:33.606Z,24.18
2019-06-26T02:38:07.478Z,24.60
2019-06-26T02:40:42.914Z,23.70
2019-06-26T02:43:16.724Z,25.35
2019-06-26T02:45:50.363Z,22.77
2019-06-26T02:48:24.126Z,23.02
2019-06-26T02:50:58.091Z,24.55
2019-06-26T02:53:31.740Z,23.85
2019-06-26T02:56:05.387Z,24.00
2019-06-26T02:58:40.196Z,23.52
2019-06-26T03:01:15.556Z,24.77
2019-06-26T03:03:49.379Z,23.67
2019-06-26T03:06:23.115Z,23.57
2019-06-26T03:08:56.966Z,23.98
2019-06-26T03:11:30.821Z,23.90
2019-06-26T03:14:04.595Z,23.57
2019-06-26T03:16:38.313Z,24.77
2019-06-26T03:19:13.441Z,23.12
2019-06-26T03:21:47.178Z,22.95
2019-06-26T03:24:20.982Z,23.65
2019-06-26T03:26:54.881Z,23.83
2019-06-26T03:29:28.734Z,23.67
2019-06-26T03:32:02.461Z,25.92
2019-06-26T03:34:36.180Z,26.97
2019-06-26T03:37:09.902Z,25.02
2019-06-26T03:39:43.725Z,24.12
2019-06-26T03:42:17.502Z,24.45
2019-06-26T03:44:52.737Z,23.92
2019-06-26T03:47:26.506Z,26.07
2019-06-26T03:50:00.268Z,25.88
2019-06-26T03:52:34.060Z,23.50
2019-06-26T03:55:07.785Z,24.82
2019-06-26T03:57:41.519Z,23.30
2019-06-26T04:00:15.249Z,24.35
2019-06-26T04:02:49.035Z,24.40
2019-06-26T04:05:22.933Z,22.80
2019-06-26T04:07:56.736Z,23.60
2019-06-26T04:10:30.647Z,24.45
2019-06-26T04:13:05.414Z,24.82
2019-06-26T04:15:42.521Z,24.32
2019-06-26T04:18:16.583Z,25.05
2019-06-26T04:20:50.221Z,23.30
2019-06-26T04:23:23.994Z,26.85
2019-06-26T04:25:57.733Z,26.48
2019-06-26T04:28:32.027Z,21.77
2019-06-26T04:31:05.728Z,22.13
2019-06-26T04:33:39.594Z,22.02
2019-06-26T04:36:15.173Z,23.18
2019-06-26T04:38:48.826Z,24.23
2019-06-26T04:41:22.989Z,23.00
2019-06-26T04:43:56.721Z,24.90
2019-06-26T04:46:30.472Z,21.97
2019-06-26T04:49:04.164Z,22.62
2019-06-26T04:51:37.920Z,22.02
2019-06-26T04:54:11.656Z,21.57
2019-06-26T04:56:45.576Z,22.52
2019-06-26T04:59:19.368Z,20.32
2019-06-26T05:01:53.119Z,22.32
2019-06-26T05:04:27.044Z,20.48
2019-06-26T05:07:00.717Z,18.80
2019-06-26T05:09:34.434Z,19.85
2019-06-26T05:12:08.184Z,21.60
2019-06-26T05:14:41.926Z,20.97
2019-06-26T05:17:15.878Z,20.75
2019-06-26T05:19:49.603Z,21.60
2019-06-26T05:22:23.478Z,19.17
2019-06-26T05:24:57.125Z,19.73
2019-06-26T05:27:30.854Z,19.20
2019-06-26T05:30:05.557Z,18.02
2019-06-26T05:32:39.273Z,22.25
2019-06-26T05:35:12.986Z,20.40
2019-06-26T05:37:46.733Z,19.23
2019-06-26T05:40:20.445Z,21.75
2019-06-26T05:42:54.144Z,17.40
2019-06-26T05:45:27.853Z,21.65
2019-06-26T05:48:01.486Z,18.25
2019-06-26T05:50:35.331Z,18.25
2019-06-26T05:53:09.073Z,19.42
2019-06-26T05:55:43.129Z,19.37
2019-06-26T05:58:18.063Z,18.73
2019-06-26T06:00:52.008Z,20.15
2019-06-26T06:03:25.877Z,19.60
2019-06-26T06:05:59.632Z,18.45
2019-06-26T06:08:33.421Z,17.77
2019-06-26T06:11:07.229Z,20.88
2019-06-26T06:13:40.954Z,19.67
2019-06-26T06:16:14.698Z,19.42
2019-06-26T06:18:48.466Z,21.62
2019-06-26T06:21:22.704Z,19.45
2019-06-26T06:23:56.446Z,19.07
2019-06-26T06:26:30.124Z,21.40
2019-06-26T06:29:04.032Z,17.95
2019-06-26T06:31:37.973Z,18.32
2019-06-26T06:34:11.934Z,19.10
2019-06-26T06:36:45.907Z,18.85
2019-06-26T06:39:20.828Z,17.90
2019-06-26T06:41:55.111Z,17.85
2019-06-26T06:44:28.843Z,17.85
2019-06-26T06:47:04.581Z,20.08
2019-06-26T06:49:38.628Z,20.23
2019-06-26T06:52:16.610Z,16.65
2019-06-26T06:54:50.774Z,20.57
2019-06-26T06:57:25.072Z,16.57
2019-06-26T06:59:58.819Z,16.48
2019-06-26T07:02:33.297Z,17.30
2019-06-26T07:05:07.444Z,18.80
2019-06-26T07:07:41.364Z,15.83
2019-06-26T07:10:15.296Z,16.10
2019-06-26T07:12:49.212Z,15.32
2019-06-26T07:15:24.138Z,16.32
2019-06-26T07:17:58.290Z,15.03
2019-06-26T07:20:32.498Z,15.30
2019-06-26T07:23:06.651Z,15.38
2019-06-26T07:25:40.557Z,15.90
2019-06-26T07:28:14.688Z,15.78
2019-06-26T07:30:48.778Z,16.77
2019-06-26T07:33:23.253Z,15.40
2019-06-26T07:35:57.568Z,16.25
2019-06-26T07:38:31.696Z,15.85
2019-06-26T07:41:05.904Z,18.37
2019-06-26T07:43:39.740Z,17.50
2019-06-26T07:54:07.506Z,16.27
2019-06-26T07:56:41.237Z,16.02
2019-06-26T07:59:14.917Z,19.00
2019-06-26T08:01:48.817Z,17.87
2019-06-26T08:04:22.581Z,16.62
2019-06-26T08:06:56.408Z,18.10
2019-06-26T08:09:30.223Z,15.70
2019-06-26T08:12:04.020Z,16.93
2019-06-26T08:14:37.861Z,18.42
2019-06-26T08:17:12.114Z,16.62
2019-06-26T08:19:45.976Z,16.00
2019-06-26T08:22:20.235Z,18.52
2019-06-26T08:24:53.976Z,15.48
2019-06-26T08:27:27.745Z,18.65
2019-06-26T08:30:01.916Z,15.03
2019-06-26T08:32:35.755Z,15.75
2019-06-26T08:35:10.009Z,14.47
2019-06-26T08:37:43.700Z,14.45
2019-06-26T08:40:18.456Z,14.78
2019-06-26T08:42:52.184Z,13.58
2019-06-26T08:45:26.075Z,14.35
2019-06-26T08:48:16.389Z,14.15
2019-06-26T08:50:35.324Z,13.83
2019-06-26T08:53:09.127Z,14.13
2019-06-26T08:55:42.987Z,15.32
2019-06-26T08:58:16.885Z,14.83
2019-06-26T09:00:50.571Z,14.78
2019-06-26T09:03:24.287Z,16.10
2019-06-26T09:06:03.636Z,27.93
2019-06-26T09:08:44.953Z,14.13
2019-06-26T09:11:27.358Z,13.78
2019-06-26T09:14:09.214Z,14.87
2019-06-26T09:16:44.209Z,15.30
2019-06-26T09:19:18.684Z,17.25
2019-06-26T09:21:52.641Z,16.30
2019-06-26T09:24:26.585Z,16.75
2019-06-26T09:27:00.343Z,14.95
2019-06-26T09:29:36.181Z,17.02
2019-06-26T09:32:10.429Z,16.17
2019-06-26T09:34:44.149Z,14.68
2019-06-26T09:37:18.015Z,15.95
2019-06-26T09:39:52.934Z,14.87
2019-06-26T09:42:26.640Z,15.70
2019-06-26T09:45:00.911Z,14.80
2019-06-26T09:47:34.793Z,14.95
2019-06-26T09:50:08.556Z,16.07
2019-06-26T09:52:42.315Z,15.10
2019-06-26T09:55:16.964Z,15.40
2019-06-26T09:57:50.584Z,16.27
2019-06-26T10:00:24.615Z,14.83
2019-06-26T10:02:58.511Z,15.83
2019-06-26T10:05:32.375Z,15.75
2019-06-26T10:08:06.180Z,18.35
2019-06-26T10:10:40.113Z,16.17
2019-06-26T10:13:13.849Z,15.88
2019-06-26T10:15:47.733Z,16.27
2019-06-26T10:18:22.121Z,15.93
2019-06-26T10:20:55.845Z,17.10
2019-06-26T10:23:29.645Z,14.83
2019-06-26T10:26:03.502Z,15.45
2019-06-26T10:28:37.348Z,15.72
2019-06-26T10:31:11.213Z,16.12
2019-06-26T10:33:44.939Z,15.68
2019-06-26T10:36:20.206Z,15.05
2019-06-26T10:38:53.969Z,14.25
2019-06-26T10:41:27.735Z,15.95
2019-06-26T10:44:01.997Z,15.00
2019-06-26T10:46:37.146Z,14.83
2019-06-26T10:49:26.448Z,14.03
2019-06-26T10:51:49.274Z,12.40
2019-06-26T10:54:24.822Z,12.45
2019-06-26T10:56:59.967Z,13.65
2019-06-26T10:59:33.761Z,13.38
2019-06-26T11:02:07.619Z,12.70
2019-06-26T11:04:42.052Z,11.45
2019-06-26T11:07:15.959Z,11.12
2019-06-26T11:09:50.781Z,12.13
2019-06-26T11:12:24.668Z,10.63
2019-06-26T11:14:59.485Z,11.68
2019-06-26T11:17:33.620Z,11.40
2019-06-26T11:20:08.435Z,10.20
2019-06-26T11:22:42.487Z,11.75
2019-06-26T11:25:16.940Z,9.85
2019-06-26T11:27:50.684Z,10.68
2019-06-26T11:30:25.765Z,9.78
2019-06-26T11:32:59.498Z,9.43
2019-06-26T11:35:33.252Z,12.43
2019-06-26T11:38:07.277Z,8.88
2019-06-26T11:40:41.000Z,8.90
2019-06-26T11:43:14.587Z,8.95
2019-06-26T11:45:48.455Z,11.03
2019-06-26T11:48:22.235Z,9.35
2019-06-26T11:50:56.106Z,8.85
2019-06-26T11:53:29.943Z,10.10
2019-06-26T11:56:03.611Z,11.65
2019-06-26T11:58:37.493Z,9.30
2019-06-26T12:01:11.114Z,9.35
2019-06-26T12:03:45.108Z,9.53
2019-06-26T12:06:19.484Z,9.83
2019-06-26T12:08:53.294Z,9.18
2019-06-26T12:11:27.013Z,9.88
2019-06-26T12:14:00.789Z,9.50
2019-06-26T12:16:34.616Z,11.88
2019-06-26T12:19:08.318Z,9.73
2019-06-26T12:21:42.488Z,7.62
2019-06-26T12:24:16.341Z,7.95
2019-06-26T12:26:49.996Z,12.28
2019-06-26T12:29:24.588Z,8.35
2019-06-26T12:31:58.506Z,8.73
2019-06-26T12:34:32.297Z,10.18
2019-06-26T12:37:06.062Z,9.08
2019-06-26T12:39:39.724Z,9.73
2019-06-26T12:42:13.466Z,10.23
2019-06-26T12:44:47.315Z,10.98
2019-06-26T12:47:21.051Z,8.35
2019-06-26T12:49:54.726Z,9.60
2019-06-26T12:52:30.029Z,9.00
2019-06-26T12:55:04.066Z,9.65
2019-06-26T12:57:37.737Z,8.43
2019-06-26T13:00:11.775Z,8.68
2019-06-26T13:02:46.241Z,8.43
2019-06-26T13:05:19.961Z,8.15
2019-06-26T13:07:54.058Z,10.08
2019-06-26T13:10:27.773Z,9.05
2019-06-26T13:13:02.009Z,9.83
2019-06-26T13:15:36.041Z,9.15
2019-06-26T13:18:09.892Z,9.20
2019-06-26T13:20:52.829Z,12.60
2019-06-26T13:23:19.058Z,9.18
2019-06-26T13:25:52.885Z,10.18
2019-06-26T13:28:26.859Z,11.60
2019-06-26T13:31:00.562Z,9.08
2019-06-26T13:33:34.369Z,9.70
2019-06-26T13:36:08.147Z,9.28
2019-06-26T13:38:42.894Z,9.10
2019-06-26T13:41:16.635Z,9.28
2019-06-26T13:43:50.478Z,9.68
2019-06-26T13:46:24.488Z,10.25
2019-06-26T13:48:58.313Z,9.13
2019-06-26T13:51:32.473Z,7.17
2019-06-26T13:54:07.025Z,9.30
2019-06-26T13:56:40.668Z,9.00
2019-06-26T13:59:14.403Z,9.43
2019-06-26T14:01:48.172Z,7.62
2019-06-26T14:04:22.305Z,9.20
2019-06-26T14:06:55.968Z,9.43
2019-06-26T14:09:29.601Z,7.78
2019-06-26T14:12:03.472Z,9.45
2019-06-26T14:14:55.899Z,8.18
2019-06-26T14:17:13.013Z,8.33
2019-06-26T14:19:46.626Z,9.15
2019-06-26T14:22:20.677Z,8.38
2019-06-26T14:24:54.476Z,7.35
2019-06-26T14:27:28.282Z,11.50
2019-06-26T14:30:02.425Z,12.78
2019-06-26T14:32:36.222Z,7.95
2019-06-26T14:35:09.994Z,11.40
2019-06-26T14:37:43.812Z,10.75
2019-06-26T14:40:36.909Z,10.48
2019-06-26T14:43:10.754Z,9.40
2019-06-26T14:45:44.657Z,11.40
2019-06-26T14:48:18.518Z,8.30
2019-06-26T14:50:52.502Z,9.10
2019-06-26T14:53:26.402Z,12.58
2019-06-26T14:56:00.366Z,8.98
2019-06-26T14:58:36.261Z,10.55
2019-06-26T15:01:09.917Z,10.35
2019-06-26T15:03:43.877Z,12.28
2019-06-26T15:06:18.067Z,9.30
2019-06-26T15:08:52.324Z,10.53
2019-06-26T15:11:26.058Z,9.78
2019-06-26T15:13:59.852Z,8.98
2019-06-26T15:16:33.578Z,8.18
2019-06-26T15:19:07.476Z,8.60
2019-06-26T15:21:54.171Z,9.93
2019-06-26T15:24:17.164Z,8.75
2019-06-26T15:26:51.233Z,11.05
2019-06-26T15:29:25.000Z,8.85
2019-06-26T15:31:58.863Z,8.75
2019-06-26T15:34:32.871Z,11.43
2019-06-26T15:37:06.693Z,9.45
2019-06-26T15:39:40.545Z,9.88
2019-06-26T15:42:14.740Z,8.83
2019-06-26T15:44:49.864Z,9.65
2019-06-26T15:47:23.775Z,11.20
2019-06-26T15:49:57.486Z,10.65
2019-06-26T15:52:31.633Z,11.28
2019-06-26T15:55:07.178Z,11.38
2019-06-26T15:57:40.832Z,10.25
2019-06-26T16:00:14.514Z,10.85
2019-06-26T16:02:48.335Z,11.20
2019-06-26T16:05:22.315Z,9.83
2019-06-26T16:07:57.600Z,10.25
2019-06-26T16:10:34.425Z,9.90
2019-06-26T16:13:07.063Z,10.30
2019-06-26T16:15:40.880Z,9.98
2019-06-26T16:18:20.107Z,9.40
2019-06-26T16:20:53.826Z,9.98
2019-06-26T16:23:27.850Z,9.65
2019-06-26T16:26:02.953Z,10.13
2019-06-26T16:28:36.819Z,10.80
2019-06-26T16:31:10.619Z,10.53
2019-06-26T16:33:46.287Z,9.80
2019-06-26T16:36:20.012Z,9.45
2019-06-26T16:38:53.793Z,9.90
2019-06-26T16:41:27.529Z,13.68
2019-06-26T16:44:01.382Z,9.70
2019-06-26T16:46:35.191Z,10.40
2019-06-26T16:49:09.021Z,10.32
2019-06-26T16:51:42.822Z,9.90
2019-06-26T16:54:18.044Z,10.90
2019-06-26T16:56:52.153Z,14.33
2019-06-26T16:59:26.043Z,10.70
2019-06-26T17:01:59.843Z,10.10
2019-06-26T17:04:33.558Z,10.13
2019-06-26T17:07:07.345Z,10.20
2019-06-26T17:09:44.409Z,10.05
2019-06-26T17:12:18.292Z,12.93
2019-06-26T17:14:52.251Z,11.18
2019-06-26T17:17:26.163Z,12.07
2019-06-26T17:20:00.227Z,13.35
2019-06-26T17:22:34.039Z,10.70
2019-06-26T17:25:07.878Z,10.05
2019-06-26T17:27:41.652Z,11.30
2019-06-26T17:30:15.270Z,11.48
2019-06-26T17:32:48.985Z,10.93
2019-06-26T17:35:22.826Z,17.42
2019-06-26T17:37:56.595Z,11.33
2019-06-26T17:40:30.363Z,12.85
2019-06-26T17:43:12.257Z,12.50
2019-06-26T17:45:39.701Z,11.38
2019-06-26T17:48:13.587Z,12.07
2019-06-26T17:50:47.320Z,11.05
2019-06-26T17:53:22.278Z,10.55
2019-06-26T17:55:56.271Z,12.28
2019-06-26T17:58:29.960Z,11.50
2019-06-26T18:01:03.927Z,11.08
2019-06-26T18:03:37.694Z,11.43
2019-06-26T18:06:12.006Z,13.22
2019-06-26T18:08:45.795Z,11.50
2019-06-26T18:11:19.715Z,12.10
2019-06-26T18:13:53.500Z,12.43
2019-06-26T18:16:27.167Z,11.73
2019-06-26T18:19:00.917Z,12.30
2019-06-26T18:21:34.595Z,12.88
2019-06-26T18:24:08.420Z,12.15
2019-06-26T18:26:42.208Z,11.65
2019-06-26T18:29:15.965Z,15.63
2019-06-26T18:31:49.608Z,12.63
2019-06-26T18:34:23.423Z,11.30
2019-06-26T18:36:57.256Z,12.10
2019-06-26T18:39:30.995Z,13.35
2019-06-26T18:42:04.754Z,14.85
2019-06-26T18:44:40.363Z,12.15
2019-06-26T18:47:14.667Z,13.00
2019-06-26T18:49:48.471Z,16.62
2019-06-26T18:52:22.463Z,68.80
2019-06-26T18:55:03.744Z,21.65
2019-06-26T18:57:37.417Z,17.15
2019-06-26T19:00:12.300Z,16.65
2019-06-26T19:03:39.718Z,14.15
2019-06-26T19:06:30.845Z,12.63
2019-06-26T19:09:05.604Z,14.47
2019-06-26T19:11:39.485Z,13.22
2019-06-26T19:14:13.151Z,15.43
2019-06-26T19:16:49.157Z,12.75
2019-06-26T19:19:22.861Z,13.88
2019-06-26T19:22:50.717Z,13.88
2019-06-26T19:26:18.097Z,14.15
2019-06-26T19:29:45.984Z,14.47
2019-06-26T19:33:13.266Z,15.30
2019-06-26T19:35:49.862Z,13.08
2019-06-26T19:38:23.616Z,15.83
2019-06-26T19:40:57.326Z,12.95
2019-06-26T19:43:39.917Z,12.35
2019-06-26T19:46:13.741Z,13.20
2019-06-26T19:52:06.797Z,13.83
2019-06-26T19:54:40.731Z,14.63
2019-06-26T19:57:15.162Z,12.63
2019-06-26T19:59:49.159Z,12.78
2019-06-26T20:02:24.024Z,12.58
2019-06-26T20:04:58.016Z,11.60
2019-06-26T20:07:32.038Z,14.65
2019-06-26T20:10:06.037Z,12.28
2019-06-26T20:12:39.948Z,13.45
2019-06-26T20:15:14.066Z,13.35
2019-06-26T20:17:49.018Z,13.75
2019-06-26T20:20:23.322Z,13.65
2019-06-26T20:22:57.029Z,11.78
2019-06-26T20:25:31.138Z,14.90
2019-06-26T20:28:06.347Z,12.00
2019-06-26T20:30:40.455Z,12.43
2019-06-26T20:33:14.623Z,11.22
2019-06-26T20:36:10.131Z,16.27
2019-06-26T20:38:45.247Z,15.93
2019-06-26T20:41:19.164Z,11.75
2019-06-26T20:43:53.056Z,11.48
2019-06-26T20:47:20.537Z,13.55
2019-06-26T20:49:55.732Z,11.03
2019-06-26T20:52:29.727Z,11.75
2019-06-26T20:55:03.522Z,12.00
2019-06-26T20:57:37.351Z,13.70
2019-06-26T21:00:12.163Z,11.68
2019-06-26T21:03:40.094Z,12.25
2019-06-26T21:06:32.487Z,13.60
2019-06-26T21:09:06.856Z,11.33
2019-06-26T21:11:41.448Z,12.50
2019-06-26T21:14:15.256Z,11.30
2019-06-26T21:16:55.214Z,11.25
2019-06-26T21:19:29.285Z,12.20
2019-06-26T21:22:02.997Z,12.07
2019-06-26T21:24:36.797Z,12.58
2019-06-26T21:27:10.752Z,12.70
2019-06-26T21:29:44.472Z,13.25
2019-06-26T21:32:18.307Z,13.28
2019-06-26T21:34:51.933Z,13.22
2019-06-26T21:37:25.844Z,11.53
2019-06-26T21:39:59.558Z,13.32
2019-06-26T21:42:33.528Z,11.25
2019-06-26T21:45:07.331Z,11.43
2019-06-26T21:47:41.850Z,13.80
2019-06-26T21:50:15.756Z,13.72
2019-06-26T21:52:49.754Z,13.05
2019-06-26T21:55:34.154Z,14.83
2019-06-26T21:58:01.798Z,11.70
2019-06-26T22:00:36.864Z,13.13
2019-06-26T22:03:10.789Z,11.70
2019-06-26T22:05:44.503Z,11.97
2019-06-26T22:08:18.342Z,12.33
2019-06-26T22:10:52.364Z,12.35
2019-06-26T22:13:26.131Z,12.03
2019-06-26T22:15:59.980Z,12.90
2019-06-26T22:18:33.750Z,11.85
2019-06-26T22:21:07.478Z,11.80
2019-06-26T22:23:41.802Z,12.05
2019-06-26T22:26:15.552Z,13.15
2019-06-26T22:28:49.463Z,13.08
2019-06-26T22:31:23.173Z,13.08
2019-06-26T22:33:56.879Z,12.55
2019-06-26T22:36:30.754Z,13.05
2019-06-26T22:39:04.874Z,12.03
2019-06-26T22:41:38.572Z,12.30
2019-06-26T22:44:12.376Z,12.23
2019-06-26T22:46:46.145Z,14.43
2019-06-26T22:49:19.867Z,12.28
2019-06-26T22:51:53.707Z,11.68
2019-06-26T22:54:27.486Z,13.98
2019-06-26T22:57:01.199Z,12.65
2019-06-26T22:59:35.004Z,12.55
2019-06-26T23:02:08.735Z,14.00
2019-06-26T23:04:42.447Z,11.95
2019-06-26T23:07:16.324Z,15.38
2019-06-26T23:09:50.128Z,11.93
2019-06-26T23:12:23.842Z,11.63
2019-06-26T23:14:57.596Z,12.78
2019-06-26T23:17:31.462Z,12.28
2019-06-26T23:20:05.913Z,14.28
2019-06-26T23:22:39.653Z,13.78
2019-06-26T23:25:13.436Z,11.57
2019-06-26T23:27:47.382Z,14.60
2019-06-26T23:30:21.037Z,11.97
2019-06-26T23:32:54.998Z,12.25
2019-06-26T23:35:28.829Z,13.50
2019-06-26T23:38:02.925Z,12.50
2019-06-26T23:40:36.856Z,13.55
2019-06-26T23:43:10.649Z,11.68
2019-06-26T23:45:44.825Z,12.33
2019-06-26T23:48:18.616Z,17.77
2019-06-26T23:50:52.425Z,12.45
2019-06-26T23:53:26.155Z,13.32
2019-06-26T23:55:59.878Z,12.63
2019-06-26T23:58:33.622Z,12.37
